createdAt,value
2022-07-31T00:00:38.201Z,20.00
2022-07-31T00:03:05.144Z,20.00
2022-07-31T00:05:31.909Z,19.80
2022-07-31T00:08:05.771Z,19.80
2022-07-31T00:10:32.583Z,20.00
2022-07-31T00:12:59.206Z,20.10
2022-07-31T00:15:26.226Z,20.00
2022-07-31T00:17:52.919Z,19.90
2022-07-31T00:20:19.788Z,19.90
2022-07-31T00:22:47.641Z,19.90
2022-07-31T00:25:15.429Z,19.90
2022-07-31T00:27:42.603Z,19.90
2022-07-31T00:30:10.076Z,19.90
2022-07-31T00:32:36.779Z,19.90
2022-07-31T00:35:03.617Z,19.80
2022-07-31T00:37:30.172Z,19.80
2022-07-31T00:39:56.732Z,19.80
2022-07-31T00:42:26.338Z,19.80
2022-07-31T00:44:53.290Z,19.80
2022-07-31T00:47:23.991Z,19.90
2022-07-31T00:49:52.366Z,19.90
2022-07-31T00:52:19.426Z,20.00
2022-07-31T00:54:46.204Z,20.00
2022-07-31T00:57:12.842Z,20.00
2022-07-31T00:59:39.401Z,20.10
2022-07-31T01:02:06.350Z,20.10
2022-07-31T01:04:32.903Z,20.10
2022-07-31T01:07:01.467Z,20.10
2022-07-31T01:09:28.297Z,20.10
2022-07-31T01:12:03.798Z,20.10
2022-07-31T01:14:35.433Z,20.10
2022-07-31T01:17:05.949Z,20.20
2022-07-31T01:19:42.186Z,20.20
2022-07-31T01:22:32.877Z,20.20
2022-07-31T01:25:25.955Z,20.20
2022-07-31T01:28:18.866Z,20.00
2022-07-31T01:31:17.208Z,20.00
2022-07-31T01:33:51.030Z,20.10
2022-07-31T01:36:22.242Z,20.10
2022-07-31T01:38:51.485Z,20.10
2022-07-31T01:41:23.057Z,20.00
2022-07-31T01:43:54.359Z,20.10
2022-07-31T01:46:22.721Z,20.20
2022-07-31T01:48:50.309Z,20.30
2022-07-31T01:51:18.546Z,20.20
2022-07-31T01:53:47.461Z,20.00
2022-07-31T01:56:18.558Z,19.90
2022-07-31T01:58:47.070Z,19.80
2022-07-31T02:01:14.744Z,19.80
2022-07-31T02:03:45.255Z,19.70
2022-07-31T02:06:15.834Z,19.70
2022-07-31T02:08:45.964Z,19.70
2022-07-31T02:11:15.865Z,19.60
2022-07-31T02:13:43.278Z,19.60
2022-07-31T02:16:10.676Z,19.60
2022-07-31T02:18:37.452Z,19.50
2022-07-31T02:21:04.136Z,19.50
2022-07-31T02:23:30.777Z,19.50
2022-07-31T02:25:58.106Z,19.50
2022-07-31T02:28:25.903Z,19.50
2022-07-31T02:30:53.900Z,19.40
2022-07-31T02:33:24.062Z,19.50
2022-07-31T02:35:54.185Z,19.50
2022-07-31T02:38:23.841Z,19.60
2022-07-31T02:40:53.022Z,19.50
2022-07-31T02:43:20.341Z,19.50
2022-07-31T02:45:47.785Z,19.50
2022-07-31T02:48:14.763Z,19.40
2022-07-31T02:50:42.644Z,19.40
2022-07-31T02:53:09.314Z,19.40
2022-07-31T02:55:36.812Z,19.30
2022-07-31T02:58:06.109Z,19.30
2022-07-31T03:00:32.851Z,19.30
2022-07-31T03:02:59.450Z,19.20
2022-07-31T03:05:26.160Z,19.00
2022-07-31T03:07:52.805Z,19.00
2022-07-31T03:10:19.442Z,19.10
2022-07-31T03:12:49.996Z,19.00
2022-07-31T03:15:23.543Z,19.10
2022-07-31T03:17:51.056Z,19.10
2022-07-31T03:20:18.571Z,19.00
2022-07-31T03:22:46.054Z,18.90
2022-07-31T03:25:21.890Z,18.80
2022-07-31T03:27:55.850Z,18.70
2022-07-31T03:30:27.541Z,18.70
2022-07-31T03:32:55.265Z,18.70
2022-07-31T03:35:22.621Z,18.70
2022-07-31T03:37:49.514Z,18.70
2022-07-31T03:40:16.098Z,18.90
2022-07-31T03:42:43.651Z,18.80
2022-07-31T03:45:12.231Z,18.80
2022-07-31T03:47:39.139Z,18.80
2022-07-31T03:50:07.523Z,18.70
2022-07-31T03:52:34.703Z,18.60
2022-07-31T03:55:01.798Z,18.60
2022-07-31T03:57:31.439Z,18.70
2022-07-31T04:00:02.476Z,18.80
2022-07-31T04:02:30.210Z,18.70
2022-07-31T04:04:58.646Z,18.70
2022-07-31T04:07:25.511Z,18.70
2022-07-31T04:09:52.137Z,18.70
2022-07-31T04:12:18.715Z,18.80
2022-07-31T04:14:45.875Z,18.80
2022-07-31T04:17:13.216Z,18.70
2022-07-31T04:19:39.835Z,18.70
2022-07-31T04:22:07.434Z,18.70
2022-07-31T04:24:34.492Z,18.70
2022-07-31T04:27:01.529Z,18.80
2022-07-31T04:29:30.902Z,18.90
2022-07-31T04:31:57.531Z,18.80
2022-07-31T04:34:24.087Z,18.80
2022-07-31T04:36:50.757Z,18.80
2022-07-31T04:39:17.352Z,18.80
2022-07-31T04:41:44.227Z,18.90
2022-07-31T04:44:10.825Z,18.90
2022-07-31T04:46:37.535Z,18.90
2022-07-31T04:49:04.430Z,18.90
2022-07-31T04:51:31.216Z,19.00
2022-07-31T04:53:57.831Z,19.10
2022-07-31T04:56:33.655Z,19.10
2022-07-31T04:59:05.746Z,19.20
2022-07-31T05:01:33.111Z,19.40
2022-07-31T05:04:00.379Z,19.50
2022-07-31T05:06:35.269Z,19.50
2022-07-31T05:09:08.442Z,19.60
2022-07-31T05:11:37.320Z,19.60
2022-07-31T05:14:06.247Z,19.50
2022-07-31T05:16:33.917Z,19.50
2022-07-31T05:19:01.144Z,19.50
2022-07-31T05:21:27.877Z,19.60
2022-07-31T05:23:55.438Z,19.60
2022-07-31T05:26:22.974Z,19.60
2022-07-31T05:28:55.194Z,19.70
2022-07-31T05:31:24.605Z,19.80
2022-07-31T05:33:51.759Z,19.90
2022-07-31T05:36:19.543Z,19.90
2022-07-31T05:38:46.453Z,19.90
2022-07-31T05:41:14.434Z,19.80
2022-07-31T05:43:41.198Z,19.90
2022-07-31T05:46:08.181Z,20.00
2022-07-31T05:48:35.054Z,20.00
2022-07-31T05:51:05.375Z,20.00
2022-07-31T05:53:32.245Z,20.00
2022-07-31T05:55:58.797Z,20.00
2022-07-31T05:58:25.418Z,20.00
2022-07-31T06:00:51.988Z,20.10
2022-07-31T06:03:24.229Z,20.00
2022-07-31T06:05:51.895Z,20.00
2022-07-31T06:08:18.498Z,20.10
2022-07-31T06:10:45.440Z,20.10
2022-07-31T06:13:14.531Z,20.10
2022-07-31T06:15:49.025Z,20.10
2022-07-31T06:18:16.008Z,20.10
2022-07-31T06:20:42.616Z,20.10
2022-07-31T06:23:20.007Z,20.10
2022-07-31T06:25:54.786Z,20.10
2022-07-31T06:28:25.429Z,20.30
2022-07-31T06:31:05.518Z,20.40
2022-07-31T06:33:37.865Z,20.50
2022-07-31T06:36:04.820Z,20.50
2022-07-31T06:38:31.428Z,20.50
2022-07-31T06:40:57.979Z,20.50
2022-07-31T06:43:24.674Z,20.60
2022-07-31T06:45:52.624Z,20.60
2022-07-31T06:48:19.358Z,20.70
2022-07-31T06:50:47.069Z,20.70
2022-07-31T06:53:13.748Z,20.90
2022-07-31T06:55:44.398Z,20.90
2022-07-31T06:58:11.536Z,21.00
2022-07-31T07:00:38.487Z,21.00
2022-07-31T07:03:05.045Z,21.00
2022-07-31T07:05:31.685Z,21.00
2022-07-31T07:07:58.249Z,21.00
2022-07-31T07:10:24.949Z,21.10
2022-07-31T07:12:51.682Z,21.20
2022-07-31T07:15:20.746Z,21.30
2022-07-31T07:17:47.360Z,21.30
2022-07-31T07:20:14.037Z,21.30
2022-07-31T07:22:40.609Z,21.40
2022-07-31T07:25:08.055Z,21.50
2022-07-31T07:27:34.725Z,21.50
2022-07-31T07:30:01.332Z,21.60
2022-07-31T07:32:27.940Z,21.60
2022-07-31T07:34:59.992Z,21.70
2022-07-31T07:37:27.356Z,21.70
2022-07-31T07:39:53.954Z,21.80
2022-07-31T07:42:20.730Z,21.90
2022-07-31T07:44:47.292Z,22.00
2022-07-31T07:47:13.850Z,22.00
2022-07-31T07:49:40.572Z,22.30
2022-07-31T07:52:07.189Z,22.30
2022-07-31T07:54:33.754Z,22.40
2022-07-31T07:57:00.449Z,22.40
2022-07-31T07:59:27.005Z,22.40
2022-07-31T08:01:53.642Z,22.60
2022-07-31T08:04:20.193Z,22.70
2022-07-31T08:06:46.878Z,22.80
2022-07-31T08:09:13.425Z,22.70
2022-07-31T08:11:40.069Z,22.90
2022-07-31T08:14:06.693Z,23.00
2022-07-31T08:16:33.266Z,23.00
2022-07-31T08:18:59.841Z,23.00
2022-07-31T08:21:26.617Z,23.10
2022-07-31T08:23:53.365Z,23.10
2022-07-31T08:26:20.188Z,23.10
2022-07-31T08:28:50.827Z,23.20
2022-07-31T08:31:19.787Z,23.40
2022-07-31T08:33:46.386Z,23.40
2022-07-31T08:36:13.045Z,23.50
2022-07-31T08:38:39.740Z,23.60
2022-07-31T08:41:06.297Z,23.60
2022-07-31T08:44:02.063Z,23.70
2022-07-31T08:46:21.941Z,23.80
2022-07-31T08:48:53.376Z,23.90
2022-07-31T08:51:21.423Z,23.80
2022-07-31T08:53:51.288Z,23.90
2022-07-31T08:56:19.405Z,24.10
2022-07-31T08:58:46.818Z,24.10
2022-07-31T09:01:14.840Z,24.10
2022-07-31T09:03:41.626Z,24.20
2022-07-31T09:06:08.425Z,24.30
2022-07-31T09:08:36.410Z,24.70
2022-07-31T09:11:08.826Z,25.00
2022-07-31T09:13:35.810Z,25.10
2022-07-31T09:16:03.572Z,25.20
2022-07-31T09:18:30.647Z,25.30
2022-07-31T09:20:58.645Z,25.30
2022-07-31T09:23:27.690Z,25.40
2022-07-31T09:25:55.373Z,25.60
2022-07-31T09:28:32.589Z,25.90
2022-07-31T09:30:59.373Z,26.00
2022-07-31T09:33:28.202Z,26.00
2022-07-31T09:35:55.274Z,26.00
2022-07-31T09:38:29.411Z,26.00
2022-07-31T09:40:57.779Z,26.20
2022-07-31T09:43:25.854Z,26.30
2022-07-31T09:45:59.959Z,26.60
2022-07-31T09:48:28.573Z,26.90
2022-07-31T09:51:13.607Z,27.10
2022-07-31T09:53:56.373Z,27.50
2022-07-31T09:56:33.878Z,27.50
2022-07-31T09:59:01.613Z,27.70
2022-07-31T10:01:29.882Z,27.60
2022-07-31T10:04:00.470Z,27.60
2022-07-31T10:06:29.154Z,27.60
2022-07-31T10:08:56.546Z,27.50
2022-07-31T10:11:25.173Z,27.50
2022-07-31T10:13:56.341Z,27.50
2022-07-31T10:16:27.198Z,27.40
2022-07-31T10:18:59.352Z,27.30
2022-07-31T10:21:33.617Z,27.30
2022-07-31T10:24:02.879Z,27.30
2022-07-31T10:26:57.436Z,27.20
2022-07-31T10:29:17.807Z,27.10
2022-07-31T10:31:46.194Z,26.90
2022-07-31T10:34:15.184Z,27.10
2022-07-31T10:36:44.121Z,27.20
2022-07-31T10:39:31.348Z,27.20
2022-07-31T10:42:29.184Z,27.20
2022-07-31T10:45:04.530Z,27.10
2022-07-31T10:47:31.137Z,27.10
2022-07-31T10:49:57.772Z,27.00
2022-07-31T10:52:35.736Z,27.00
2022-07-31T10:55:14.166Z,27.00
2022-07-31T10:57:56.147Z,26.90
2022-07-31T11:00:28.289Z,27.10
2022-07-31T11:02:56.832Z,27.00
2022-07-31T11:05:24.405Z,27.30
2022-07-31T11:08:05.874Z,27.40
2022-07-31T11:10:34.001Z,27.50
2022-07-31T11:13:05.098Z,27.60
2022-07-31T11:15:32.038Z,27.70
2022-07-31T11:18:23.520Z,27.90
2022-07-31T11:20:48.590Z,28.00
2022-07-31T11:23:17.597Z,27.80
2022-07-31T11:25:46.292Z,27.90
2022-07-31T11:28:13.295Z,27.80
2022-07-31T11:31:02.334Z,27.80
2022-07-31T11:33:42.789Z,27.70
2022-07-31T11:36:13.691Z,27.70
2022-07-31T11:38:49.699Z,27.60
2022-07-31T11:41:17.411Z,27.60
2022-07-31T11:43:51.785Z,27.60
2022-07-31T11:46:29.862Z,27.80
2022-07-31T11:48:57.746Z,28.00
2022-07-31T11:51:25.940Z,28.00
2022-07-31T11:53:57.821Z,28.40
2022-07-31T11:56:26.829Z,29.00
2022-07-31T11:58:59.550Z,29.50
2022-07-31T12:01:27.829Z,29.60
2022-07-31T12:03:56.853Z,29.10
2022-07-31T12:06:23.627Z,28.90
2022-07-31T12:08:52.335Z,29.10
2022-07-31T12:11:20.400Z,29.30
2022-07-31T12:13:51.810Z,29.50
2022-07-31T12:16:18.735Z,29.50
2022-07-31T12:18:59.627Z,29.00
2022-07-31T12:21:36.779Z,29.10
2022-07-31T12:24:11.406Z,29.50
2022-07-31T12:26:38.120Z,29.70
2022-07-31T12:29:08.047Z,29.90
2022-07-31T12:31:54.149Z,30.10
2022-07-31T12:34:31.035Z,30.20
2022-07-31T12:37:10.857Z,30.30
2022-07-31T12:40:00.372Z,30.50
2022-07-31T12:42:37.594Z,30.70
2022-07-31T12:45:18.544Z,30.60
2022-07-31T12:47:51.611Z,31.00
2022-07-31T12:50:22.587Z,30.80
2022-07-31T12:52:49.333Z,30.90
2022-07-31T12:55:17.272Z,31.70
2022-07-31T12:57:51.299Z,31.90
2022-07-31T13:00:22.501Z,31.80
2022-07-31T13:02:50.052Z,31.90
2022-07-31T13:05:16.913Z,31.90
2022-07-31T13:07:43.896Z,31.70
2022-07-31T13:10:20.391Z,31.90
2022-07-31T13:12:50.343Z,31.80
2022-07-31T13:15:30.132Z,32.20
2022-07-31T13:17:58.656Z,32.10
2022-07-31T13:20:25.863Z,32.30
2022-07-31T13:22:52.490Z,31.70
2022-07-31T13:25:19.346Z,31.70
2022-07-31T13:27:47.532Z,31.60
2022-07-31T13:30:14.328Z,31.30
2022-07-31T13:32:41.162Z,31.30
2022-07-31T13:35:26.660Z,31.40
2022-07-31T13:37:55.108Z,31.30
2022-07-31T13:40:40.723Z,31.30
2022-07-31T13:43:07.535Z,31.30
2022-07-31T13:45:34.498Z,31.50
2022-07-31T13:48:04.457Z,31.50
2022-07-31T13:50:37.109Z,31.50
2022-07-31T13:53:03.862Z,31.30
2022-07-31T13:55:30.550Z,31.30
2022-07-31T13:58:01.122Z,31.40
2022-07-31T14:00:29.049Z,31.50
2022-07-31T14:02:55.988Z,31.00
2022-07-31T14:05:26.421Z,30.90
2022-07-31T14:07:54.847Z,30.80
2022-07-31T14:10:22.073Z,30.50
2022-07-31T14:12:49.641Z,30.60
2022-07-31T14:15:18.033Z,30.40
2022-07-31T14:17:44.761Z,30.40
2022-07-31T14:20:12.030Z,30.30
2022-07-31T14:22:38.793Z,30.20
2022-07-31T14:25:05.665Z,30.20
2022-07-31T14:27:34.216Z,30.00
2022-07-31T14:30:01.539Z,30.00
2022-07-31T14:32:30.342Z,30.10
2022-07-31T14:34:56.972Z,30.10
2022-07-31T14:37:23.631Z,30.10
2022-07-31T14:39:50.415Z,30.10
2022-07-31T14:42:22.066Z,30.10
2022-07-31T14:44:52.134Z,30.00
2022-07-31T14:47:18.763Z,30.00
2022-07-31T14:50:07.613Z,30.20
2022-07-31T14:52:32.370Z,30.20
2022-07-31T14:55:00.682Z,30.40
2022-07-31T14:57:28.588Z,30.70
2022-07-31T14:59:55.309Z,30.70
2022-07-31T15:02:22.924Z,30.50
2022-07-31T15:04:51.177Z,30.50
2022-07-31T15:07:36.646Z,30.50
2022-07-31T15:10:06.912Z,30.50
2022-07-31T15:12:34.227Z,30.10
2022-07-31T15:15:00.945Z,30.00
2022-07-31T15:17:28.433Z,29.80
2022-07-31T15:19:55.226Z,29.80
2022-07-31T15:22:21.960Z,29.70
2022-07-31T15:24:50.009Z,29.90
2022-07-31T15:27:21.743Z,30.20
2022-07-31T15:30:04.297Z,30.80
2022-07-31T15:32:38.683Z,31.70
2022-07-31T15:35:08.000Z,32.60
2022-07-31T15:37:36.520Z,32.30
2022-07-31T15:40:05.836Z,31.90
2022-07-31T15:42:32.766Z,31.80
2022-07-31T15:44:59.473Z,32.20
2022-07-31T15:47:26.548Z,32.90
2022-07-31T15:49:53.249Z,32.40
2022-07-31T15:52:20.029Z,32.20
2022-07-31T15:54:47.508Z,31.70
2022-07-31T15:57:22.505Z,31.60
2022-07-31T15:59:50.659Z,31.70
2022-07-31T16:02:17.635Z,31.80
2022-07-31T16:04:51.455Z,31.40
2022-07-31T16:08:32.329Z,31.20
2022-07-31T16:10:15.489Z,31.00
2022-07-31T16:12:46.718Z,30.90
2022-07-31T16:15:13.782Z,31.50
2022-07-31T16:17:40.861Z,32.50
2022-07-31T16:20:09.811Z,33.20
2022-07-31T16:22:37.607Z,33.70
2022-07-31T16:25:05.964Z,34.00
2022-07-31T16:27:32.670Z,33.80
2022-07-31T16:30:01.922Z,33.70
2022-07-31T16:32:30.306Z,33.50
2022-07-31T16:35:00.589Z,33.70
2022-07-31T16:37:52.489Z,33.60
2022-07-31T16:40:31.083Z,33.20
2022-07-31T16:43:47.713Z,33.30
2022-07-31T16:45:50.679Z,33.10
2022-07-31T16:48:17.438Z,32.90
2022-07-31T16:50:44.133Z,32.60
2022-07-31T16:53:13.579Z,33.90
2022-07-31T16:56:00.950Z,34.00
2022-07-31T16:58:28.939Z,34.20
2022-07-31T17:00:55.771Z,34.20
2022-07-31T17:03:58.574Z,34.20
2022-07-31T17:06:10.258Z,33.80
2022-07-31T17:08:38.047Z,32.80
2022-07-31T17:11:04.990Z,33.40
2022-07-31T17:13:31.645Z,33.50
2022-07-31T17:15:58.460Z,33.00
2022-07-31T17:18:25.924Z,32.80
2022-07-31T17:20:55.730Z,32.80
2022-07-31T17:23:33.152Z,32.90
2022-07-31T17:26:21.602Z,32.90
2022-07-31T17:28:50.287Z,32.70
2022-07-31T17:31:17.513Z,32.70
2022-07-31T17:33:58.859Z,32.50
2022-07-31T17:36:29.312Z,32.30
2022-07-31T17:38:57.109Z,32.30
2022-07-31T17:41:24.563Z,32.20
2022-07-31T17:43:54.490Z,32.00
2022-07-31T17:46:34.523Z,32.00
2022-07-31T17:49:05.852Z,31.70
2022-07-31T17:51:33.054Z,31.80
2022-07-31T17:54:00.411Z,31.70
2022-07-31T17:56:27.433Z,31.40
2022-07-31T17:58:55.589Z,31.10
2022-07-31T18:01:26.959Z,31.30
2022-07-31T18:03:55.675Z,31.40
2022-07-31T18:06:22.352Z,31.40
2022-07-31T18:08:48.954Z,31.40
2022-07-31T18:11:15.565Z,31.40
2022-07-31T18:13:48.777Z,31.40
2022-07-31T18:16:19.071Z,30.70
2022-07-31T18:18:45.862Z,30.50
2022-07-31T18:21:13.309Z,30.40
2022-07-31T18:23:43.619Z,30.40
2022-07-31T18:26:14.248Z,30.30
2022-07-31T18:28:41.104Z,30.20
2022-07-31T18:31:24.130Z,30.30
2022-07-31T18:33:54.865Z,30.30
2022-07-31T18:36:21.700Z,30.00
2022-07-31T18:38:48.740Z,29.90
2022-07-31T18:41:16.593Z,29.90
2022-07-31T18:43:43.303Z,29.70
2022-07-31T18:46:10.116Z,29.80
2022-07-31T18:48:36.968Z,29.80
2022-07-31T18:51:05.085Z,29.70
2022-07-31T18:53:32.850Z,29.70
2022-07-31T18:56:00.563Z,29.50
2022-07-31T18:58:27.527Z,29.50
2022-07-31T19:00:55.705Z,29.60
2022-07-31T19:03:24.264Z,29.50
2022-07-31T19:05:52.758Z,29.30
2022-07-31T19:08:20.434Z,29.40
2022-07-31T19:10:49.279Z,29.20
2022-07-31T19:13:19.052Z,29.10
2022-07-31T19:15:54.160Z,29.10
2022-07-31T19:18:28.579Z,28.60
2022-07-31T19:21:15.950Z,28.20
2022-07-31T19:23:43.008Z,27.90
2022-07-31T19:26:09.808Z,27.80
2022-07-31T19:28:38.228Z,27.70
2022-07-31T19:31:05.670Z,27.60
2022-07-31T19:33:32.388Z,27.60
2022-07-31T19:36:02.222Z,27.50
2022-07-31T19:38:30.923Z,27.50
2022-07-31T19:40:57.887Z,27.40
2022-07-31T19:43:24.677Z,27.40
2022-07-31T19:46:02.556Z,27.30
2022-07-31T19:48:44.293Z,27.30
2022-07-31T19:51:12.297Z,27.20
2022-07-31T19:53:39.923Z,27.10
2022-07-31T19:56:07.349Z,27.10
2022-07-31T19:58:35.406Z,27.00
2022-07-31T20:01:05.600Z,26.90
2022-07-31T20:03:33.900Z,26.80
2022-07-31T20:06:04.367Z,26.70
2022-07-31T20:08:33.111Z,26.70
2022-07-31T20:11:03.232Z,26.70
2022-07-31T20:13:31.429Z,26.60
2022-07-31T20:15:59.488Z,26.60
2022-07-31T20:18:29.673Z,26.50
2022-07-31T20:21:03.503Z,26.50
2022-07-31T20:23:38.443Z,26.50
2022-07-31T20:26:06.979Z,26.40
2022-07-31T20:28:34.095Z,26.40
2022-07-31T20:31:01.048Z,26.40
2022-07-31T20:33:27.871Z,26.30
2022-07-31T20:35:54.572Z,26.20
2022-07-31T20:38:22.365Z,26.20
2022-07-31T20:40:54.297Z,26.10
2022-07-31T20:43:29.048Z,26.00
2022-07-31T20:45:57.662Z,25.90
2022-07-31T20:48:31.117Z,25.90
2022-07-31T20:51:02.850Z,25.80
2022-07-31T20:53:30.689Z,25.70
2022-07-31T20:55:58.916Z,25.70
2022-07-31T20:58:26.056Z,25.60
2022-07-31T21:00:53.294Z,25.60
2022-07-31T21:03:20.595Z,25.50
2022-07-31T21:05:48.151Z,25.40
2022-07-31T21:08:15.480Z,25.40
2022-07-31T21:10:42.308Z,25.30
2022-07-31T21:13:09.070Z,25.30
2022-07-31T21:15:43.870Z,25.30
2022-07-31T21:18:16.047Z,25.20
2022-07-31T21:20:51.007Z,25.20
2022-07-31T21:23:23.218Z,25.10
2022-07-31T21:25:58.286Z,25.10
2022-07-31T21:28:26.652Z,25.00
2022-07-31T21:30:55.700Z,25.00
2022-07-31T21:33:26.965Z,25.00
2022-07-31T21:35:54.676Z,25.00
2022-07-31T21:38:21.515Z,25.00
2022-07-31T21:40:48.586Z,24.90
2022-07-31T21:43:16.721Z,24.80
2022-07-31T21:45:56.074Z,24.80
2022-07-31T21:48:29.139Z,24.70
2022-07-31T21:50:56.130Z,24.60
2022-07-31T21:53:23.965Z,24.60
2022-07-31T21:55:51.150Z,24.50
2022-07-31T21:58:18.387Z,24.40
2022-07-31T22:00:45.304Z,24.30
2022-07-31T22:03:12.039Z,24.40
2022-07-31T22:05:57.199Z,24.30
2022-07-31T22:08:23.867Z,24.30
2022-07-31T22:10:51.983Z,24.40
2022-07-31T22:13:19.644Z,24.40
2022-07-31T22:15:58.573Z,24.40
2022-07-31T22:18:32.740Z,24.40
2022-07-31T22:21:00.851Z,24.50
2022-07-31T22:23:27.858Z,24.50
2022-07-31T22:25:54.667Z,24.50
2022-07-31T22:28:23.286Z,24.50
2022-07-31T22:30:51.210Z,24.50
2022-07-31T22:33:18.072Z,24.50
2022-07-31T22:35:44.757Z,24.50
2022-07-31T22:38:26.402Z,24.50
2022-07-31T22:40:53.185Z,24.50
2022-07-31T22:44:09.450Z,24.50
2022-07-31T22:46:07.061Z,24.50
2022-07-31T22:48:35.727Z,24.50
2022-07-31T22:51:04.029Z,24.50
2022-07-31T22:53:30.608Z,24.40
2022-07-31T22:55:57.247Z,24.40
2022-07-31T22:58:24.904Z,24.40
2022-07-31T23:00:51.640Z,24.30
2022-07-31T23:03:18.239Z,24.30
2022-07-31T23:06:12.153Z,24.20
2022-07-31T23:08:31.471Z,24.20
2022-07-31T23:10:58.093Z,24.20
2022-07-31T23:13:24.732Z,24.10
2022-07-31T23:15:51.387Z,24.10
2022-07-31T23:18:18.055Z,24.10
2022-07-31T23:20:44.629Z,24.00
2022-07-31T23:23:11.171Z,24.00
2022-07-31T23:25:37.748Z,23.90
2022-07-31T23:28:04.474Z,23.90
2022-07-31T23:30:32.134Z,23.80
2022-07-31T23:32:58.721Z,23.80
2022-07-31T23:35:25.372Z,23.70
2022-07-31T23:37:51.971Z,23.70
2022-07-31T23:40:18.581Z,23.70
2022-07-31T23:42:45.137Z,23.70
2022-07-31T23:45:15.336Z,23.70
2022-07-31T23:47:44.542Z,23.70
2022-07-31T23:50:13.477Z,23.70
2022-07-31T23:52:40.143Z,23.60
2022-07-31T23:55:07.318Z,23.60
2022-07-31T23:57:34.684Z,23.50
